createdAt,value
2018-05-26T00:00:34.167Z,15.32
2018-05-26T00:01:42.230Z,15.22
2018-05-26T00:02:50.278Z,15.19
2018-05-26T00:03:58.358Z,15.22
2018-05-26T00:05:06.426Z,15.18
2018-05-26T00:06:14.496Z,15.19
2018-05-26T00:07:22.554Z,15.25
2018-05-26T00:08:30.624Z,15.17
2018-05-26T00:09:38.701Z,15.22
2018-05-26T00:10:46.771Z,15.22
2018-05-26T00:11:54.861Z,15.19
2018-05-26T00:13:02.893Z,15.19
2018-05-26T00:14:10.966Z,15.18
2018-05-26T00:15:19.034Z,15.10
2018-05-26T00:16:27.093Z,14.99
2018-05-26T00:17:35.168Z,14.97
2018-05-26T00:18:43.235Z,14.97
2018-05-26T00:19:51.285Z,14.97
2018-05-26T00:20:59.338Z,14.87
2018-05-26T00:22:07.425Z,14.90
2018-05-26T00:23:15.497Z,14.85
2018-05-26T00:24:23.568Z,14.78
2018-05-26T00:25:31.676Z,14.70
2018-05-26T00:26:39.678Z,14.68
2018-05-26T00:27:47.770Z,14.52
2018-05-26T00:28:55.847Z,14.51
2018-05-26T00:30:03.883Z,14.51
2018-05-26T00:31:11.955Z,14.52
2018-05-26T00:32:20.018Z,14.44
2018-05-26T00:33:28.090Z,14.41
2018-05-26T00:34:36.163Z,14.37
2018-05-26T00:35:44.230Z,14.43
2018-05-26T00:36:52.295Z,14.38
2018-05-26T00:38:00.367Z,14.26
2018-05-26T00:39:08.422Z,14.20
2018-05-26T00:40:16.494Z,14.25
2018-05-26T00:41:24.592Z,14.25
2018-05-26T00:42:32.622Z,14.23
2018-05-26T00:43:40.690Z,14.13
2018-05-26T00:44:48.766Z,14.11
2018-05-26T00:45:56.809Z,14.11
2018-05-26T00:47:04.887Z,14.04
2018-05-26T00:48:12.947Z,14.12
2018-05-26T00:49:21.018Z,14.05
2018-05-26T00:50:29.082Z,14.12
2018-05-26T00:51:37.144Z,14.11
2018-05-26T00:52:45.221Z,14.07
2018-05-26T00:53:53.284Z,14.08
2018-05-26T00:55:01.351Z,14.04
2018-05-26T00:56:09.412Z,14.04
2018-05-26T00:57:17.482Z,13.97
2018-05-26T00:58:25.549Z,13.89
2018-05-26T00:59:33.627Z,13.80
2018-05-26T01:00:41.671Z,13.89
2018-05-26T01:01:49.724Z,13.89
2018-05-26T01:02:57.822Z,13.89
2018-05-26T01:04:05.874Z,13.86
2018-05-26T01:05:13.937Z,13.89
2018-05-26T01:06:22.015Z,13.87
2018-05-26T01:07:30.053Z,13.89
2018-05-26T01:08:38.135Z,14.01
2018-05-26T01:09:46.231Z,14.03
2018-05-26T01:10:54.280Z,14.03
2018-05-26T01:12:02.348Z,14.03
2018-05-26T01:13:10.411Z,14.07
2018-05-26T01:14:18.479Z,14.04
2018-05-26T01:15:26.551Z,14.01
2018-05-26T01:16:34.618Z,13.98
2018-05-26T01:17:42.671Z,14.01
2018-05-26T01:18:50.735Z,13.95
2018-05-26T01:19:58.810Z,13.97
2018-05-26T01:21:06.866Z,14.03
2018-05-26T01:22:14.945Z,13.93
2018-05-26T01:23:23.011Z,13.89
2018-05-26T01:24:31.069Z,13.95
2018-05-26T01:25:39.133Z,13.80
2018-05-26T01:26:47.197Z,13.80
2018-05-26T01:27:55.304Z,13.78
2018-05-26T01:29:03.331Z,13.83
2018-05-26T01:30:11.390Z,13.83
2018-05-26T01:31:19.442Z,13.79
2018-05-26T01:32:27.522Z,13.76
2018-05-26T01:33:35.598Z,13.75
2018-05-26T01:34:43.654Z,13.71
2018-05-26T01:35:51.727Z,13.71
2018-05-26T01:36:59.760Z,13.71
2018-05-26T01:38:07.866Z,13.68
2018-05-26T01:39:15.925Z,13.70
2018-05-26T01:40:23.981Z,13.70
2018-05-26T01:41:32.051Z,13.67
2018-05-26T01:42:40.108Z,13.67
2018-05-26T01:43:48.184Z,13.73
2018-05-26T01:44:56.256Z,13.71
2018-05-26T01:46:04.315Z,13.76
2018-05-26T01:47:12.392Z,13.70
2018-05-26T01:48:20.445Z,13.71
2018-05-26T01:49:28.515Z,13.71
2018-05-26T01:50:36.579Z,13.71
2018-05-26T01:51:44.644Z,13.64
2018-05-26T01:52:52.758Z,13.65
2018-05-26T01:54:00.786Z,13.71
2018-05-26T01:55:08.856Z,13.73
2018-05-26T01:56:16.927Z,13.64
2018-05-26T01:57:24.980Z,13.67
2018-05-26T01:58:33.057Z,13.70
2018-05-26T01:59:41.126Z,13.68
2018-05-26T02:00:49.181Z,13.64
2018-05-26T02:01:57.278Z,13.58
2018-05-26T02:03:05.314Z,13.50
2018-05-26T02:04:13.393Z,13.62
2018-05-26T02:05:21.464Z,13.49
2018-05-26T02:06:29.502Z,13.49
2018-05-26T02:07:37.591Z,13.42
2018-05-26T02:08:45.674Z,13.45
2018-05-26T02:09:53.736Z,13.31
2018-05-26T02:11:01.800Z,13.42
2018-05-26T02:12:09.828Z,13.40
2018-05-26T02:13:17.930Z,13.37
2018-05-26T02:14:25.989Z,13.36
2018-05-26T02:15:34.062Z,13.40
2018-05-26T02:16:42.120Z,13.27
2018-05-26T02:17:50.194Z,13.33
2018-05-26T02:18:58.265Z,13.26
2018-05-26T02:20:06.334Z,13.24
2018-05-26T02:21:14.406Z,13.28
2018-05-26T02:22:22.493Z,13.27
2018-05-26T02:23:30.534Z,13.24
2018-05-26T02:24:38.614Z,13.23
2018-05-26T02:25:46.666Z,13.28
2018-05-26T02:26:54.731Z,13.26
2018-05-26T02:28:02.814Z,13.27
2018-05-26T02:29:10.873Z,13.16
2018-05-26T02:30:18.929Z,13.16
2018-05-26T02:31:27.000Z,13.28
2018-05-26T02:32:35.079Z,13.27
2018-05-26T02:33:43.113Z,13.20
2018-05-26T02:34:51.201Z,13.21
2018-05-26T02:35:59.253Z,13.21
2018-05-26T02:37:07.352Z,13.24
2018-05-26T02:38:15.409Z,13.20
2018-05-26T02:39:23.453Z,13.45
2018-05-26T02:40:31.536Z,13.62
2018-05-26T02:41:39.578Z,13.65
2018-05-26T02:42:47.661Z,13.80
2018-05-26T02:43:55.732Z,13.83
2018-05-26T02:45:03.805Z,13.87
2018-05-26T02:46:11.866Z,14.04
2018-05-26T02:47:19.905Z,14.11
2018-05-26T02:48:28.003Z,14.22
2018-05-26T02:49:36.063Z,14.23
2018-05-26T02:50:44.135Z,14.34
2018-05-26T02:51:52.210Z,14.36
2018-05-26T02:53:00.264Z,14.38
2018-05-26T02:54:08.332Z,14.38
2018-05-26T02:55:16.406Z,14.44
2018-05-26T02:56:24.487Z,14.40
2018-05-26T02:57:32.527Z,14.44
2018-05-26T02:58:40.607Z,14.43
2018-05-26T02:59:48.666Z,14.52
2018-05-26T03:00:56.737Z,14.59
2018-05-26T03:02:04.792Z,14.51
2018-05-26T03:03:12.865Z,14.44
2018-05-26T03:04:20.930Z,14.51
2018-05-26T03:05:28.991Z,14.48
2018-05-26T03:06:37.062Z,14.48
2018-05-26T03:07:45.117Z,14.41
2018-05-26T03:08:53.192Z,14.44
2018-05-26T03:10:01.273Z,14.55
2018-05-26T03:11:09.314Z,14.53
2018-05-26T03:12:17.395Z,14.67
2018-05-26T03:13:25.465Z,14.66
2018-05-26T03:14:33.526Z,14.63
2018-05-26T03:15:41.599Z,14.73
2018-05-26T03:16:49.634Z,14.86
2018-05-26T03:17:57.716Z,14.87
2018-05-26T03:19:05.789Z,14.85
2018-05-26T03:20:13.858Z,14.87
2018-05-26T03:21:21.928Z,14.78
2018-05-26T03:22:29.962Z,14.70
2018-05-26T03:23:38.053Z,14.71
2018-05-26T03:24:46.121Z,14.77
2018-05-26T03:25:54.188Z,14.82
2018-05-26T03:27:02.247Z,14.78
2018-05-26T03:28:10.332Z,14.59
2018-05-26T03:29:18.379Z,14.63
2018-05-26T03:30:26.453Z,14.63
2018-05-26T03:31:34.519Z,14.70
2018-05-26T03:32:42.584Z,14.67
2018-05-26T03:33:50.652Z,14.68
2018-05-26T03:34:58.727Z,14.66
2018-05-26T03:36:06.788Z,14.56
2018-05-26T03:37:14.856Z,14.66
2018-05-26T03:38:22.925Z,14.67
2018-05-26T03:39:30.987Z,14.62
2018-05-26T03:40:39.053Z,14.56
2018-05-26T03:41:47.121Z,14.62
2018-05-26T03:42:55.195Z,14.68
2018-05-26T03:44:03.259Z,14.56
2018-05-26T03:45:11.317Z,14.61
2018-05-26T03:46:19.388Z,14.66
2018-05-26T03:47:27.449Z,14.66
2018-05-26T03:48:35.509Z,14.66
2018-05-26T03:49:43.585Z,14.62
2018-05-26T03:50:51.654Z,14.59
2018-05-26T03:51:59.695Z,14.56
2018-05-26T03:53:07.782Z,14.62
2018-05-26T03:54:15.855Z,14.66
2018-05-26T03:55:23.916Z,14.58
2018-05-26T03:56:32.011Z,14.68
2018-05-26T03:57:40.016Z,14.58
2018-05-26T03:58:48.146Z,14.70
2018-05-26T03:59:56.179Z,14.55
2018-05-26T04:01:04.240Z,14.70
2018-05-26T04:02:12.316Z,14.67
2018-05-26T04:03:20.380Z,14.70
2018-05-26T04:04:28.446Z,14.66
2018-05-26T04:05:36.526Z,14.77
2018-05-26T04:06:44.580Z,14.71
2018-05-26T04:07:52.639Z,14.85
2018-05-26T04:09:00.717Z,14.86
2018-05-26T04:10:08.785Z,14.93
2018-05-26T04:11:16.857Z,14.82
2018-05-26T04:12:24.911Z,14.79
2018-05-26T04:13:32.975Z,14.79
2018-05-26T04:14:41.049Z,14.81
2018-05-26T04:15:49.106Z,14.93
2018-05-26T04:16:57.173Z,14.97
2018-05-26T04:18:05.244Z,14.96
2018-05-26T04:19:13.308Z,14.99
2018-05-26T04:20:21.380Z,15.10
2018-05-26T04:21:29.418Z,15.00
2018-05-26T04:22:37.513Z,15.11
2018-05-26T04:23:45.582Z,15.12
2018-05-26T04:24:53.650Z,15.19
2018-05-26T04:26:01.712Z,15.25
2018-05-26T04:27:09.773Z,15.39
2018-05-26T04:28:17.897Z,15.32
2018-05-26T04:29:25.911Z,15.39
2018-05-26T04:30:33.985Z,15.39
2018-05-26T04:31:42.044Z,15.39
2018-05-26T04:32:50.115Z,15.54
2018-05-26T04:33:58.192Z,15.50
2018-05-26T04:35:06.255Z,15.52
2018-05-26T04:36:14.312Z,15.50
2018-05-26T04:37:22.384Z,15.55
2018-05-26T04:38:30.451Z,15.63
2018-05-26T04:39:38.527Z,15.65
2018-05-26T04:40:46.585Z,15.67
2018-05-26T04:41:54.664Z,15.66
2018-05-26T04:43:02.717Z,15.72
2018-05-26T04:44:10.793Z,15.66
2018-05-26T04:45:18.852Z,15.73
2018-05-26T04:46:26.921Z,15.75
2018-05-26T04:47:34.991Z,15.84
2018-05-26T04:48:43.050Z,15.84
2018-05-26T04:49:51.115Z,15.76
2018-05-26T04:50:59.187Z,15.81
2018-05-26T04:52:07.267Z,15.76
2018-05-26T04:53:15.325Z,15.76
2018-05-26T04:54:23.402Z,15.88
2018-05-26T04:55:31.475Z,15.83
2018-05-26T04:56:39.517Z,15.87
2018-05-26T04:57:47.602Z,15.84
2018-05-26T04:58:57.594Z,15.91
2018-05-26T05:00:03.740Z,16.02
2018-05-26T05:01:11.812Z,16.09
2018-05-26T05:02:19.843Z,16.22
2018-05-26T05:03:27.952Z,16.46
2018-05-26T05:04:36.007Z,16.40
2018-05-26T05:05:44.135Z,16.36
2018-05-26T05:06:52.146Z,16.37
2018-05-26T05:08:00.203Z,16.28
2018-05-26T05:09:08.276Z,16.29
2018-05-26T05:10:16.356Z,16.22
2018-05-26T05:11:24.425Z,16.24
2018-05-26T05:12:32.680Z,16.17
2018-05-26T05:13:40.561Z,16.09
2018-05-26T05:14:48.806Z,16.10
2018-05-26T05:15:56.698Z,16.08
2018-05-26T05:17:04.760Z,16.09
2018-05-26T05:18:12.820Z,15.96
2018-05-26T05:19:20.886Z,16.00
2018-05-26T05:20:28.966Z,16.00
2018-05-26T05:21:37.031Z,15.91
2018-05-26T05:22:45.103Z,15.88
2018-05-26T05:23:53.168Z,15.73
2018-05-26T05:25:01.247Z,15.85
2018-05-26T05:26:09.290Z,15.85
2018-05-26T05:27:17.385Z,15.90
2018-05-26T05:28:25.450Z,15.92
2018-05-26T05:29:33.492Z,15.85
2018-05-26T05:30:41.585Z,15.76
2018-05-26T05:31:49.637Z,15.84
2018-05-26T05:32:57.701Z,15.84
2018-05-26T05:34:05.787Z,15.84
2018-05-26T05:35:13.854Z,15.90
2018-05-26T05:36:21.922Z,15.96
2018-05-26T05:37:30.002Z,15.96
2018-05-26T05:38:38.068Z,15.91
2018-05-26T05:39:46.123Z,15.92
2018-05-26T05:40:54.169Z,16.09
2018-05-26T05:42:02.929Z,16.02
2018-05-26T05:43:10.328Z,16.05
2018-05-26T05:44:18.404Z,16.17
2018-05-26T05:45:26.465Z,16.17
2018-05-26T05:46:34.553Z,16.12
2018-05-26T05:47:42.603Z,16.17
2018-05-26T05:48:50.675Z,16.29
2018-05-26T05:49:58.750Z,16.36
2018-05-26T05:51:06.796Z,16.39
2018-05-26T05:52:14.879Z,16.40
2018-05-26T05:53:22.945Z,16.39
2018-05-26T05:54:31.005Z,16.39
2018-05-26T05:55:39.090Z,16.43
2018-05-26T05:56:47.156Z,16.57
2018-05-26T05:57:55.218Z,16.51
2018-05-26T05:59:03.277Z,16.65
2018-05-26T06:00:11.346Z,16.74
2018-05-26T06:01:19.406Z,16.74
2018-05-26T06:02:27.490Z,16.76
2018-05-26T06:03:35.558Z,16.83
2018-05-26T06:04:43.617Z,16.77
2018-05-26T06:05:51.696Z,16.80
2018-05-26T06:06:59.735Z,16.83
2018-05-26T06:08:07.836Z,16.77
2018-05-26T06:09:15.909Z,16.92
2018-05-26T06:10:23.968Z,16.91
2018-05-26T06:11:32.045Z,16.91
2018-05-26T06:12:40.089Z,16.97
2018-05-26T06:13:48.181Z,17.02
2018-05-26T06:14:56.277Z,17.01
2018-05-26T06:16:04.310Z,17.12
2018-05-26T06:17:12.368Z,17.17
2018-05-26T06:18:20.448Z,17.23
2018-05-26T06:19:28.526Z,17.27
2018-05-26T06:20:36.574Z,17.31
2018-05-26T06:21:44.691Z,17.34
2018-05-26T06:22:52.725Z,17.46
2018-05-26T06:24:00.817Z,17.47
2018-05-26T06:25:08.866Z,17.56
2018-05-26T06:26:16.946Z,17.54
2018-05-26T06:27:25.026Z,17.65
2018-05-26T06:28:33.067Z,17.71
2018-05-26T06:29:41.141Z,17.71
2018-05-26T06:30:49.230Z,17.86
2018-05-26T06:31:57.286Z,17.84
2018-05-26T06:33:05.337Z,17.95
2018-05-26T06:34:13.472Z,17.93
2018-05-26T06:35:21.503Z,17.93
2018-05-26T06:36:29.539Z,17.94
2018-05-26T06:37:37.691Z,18.03
2018-05-26T06:38:45.693Z,18.05
2018-05-26T06:39:53.764Z,18.11
2018-05-26T06:41:01.928Z,18.08
2018-05-26T06:42:09.882Z,18.21
2018-05-26T06:43:17.969Z,18.21
2018-05-26T06:44:26.052Z,18.33
2018-05-26T06:45:34.120Z,18.45
2018-05-26T06:46:42.215Z,18.52
2018-05-26T06:47:50.272Z,18.51
2018-05-26T06:48:58.349Z,18.52
2018-05-26T06:50:06.404Z,18.66
2018-05-26T06:51:14.463Z,18.68
2018-05-26T06:52:23.001Z,18.71
2018-05-26T06:53:30.772Z,18.82
2018-05-26T06:54:38.664Z,18.91
2018-05-26T06:55:46.726Z,19.01
2018-05-26T06:56:55.197Z,19.11
2018-05-26T06:58:02.947Z,19.22
2018-05-26T06:59:11.082Z,19.24
2018-05-26T07:00:19.054Z,19.38
2018-05-26T07:01:27.095Z,19.42
2018-05-26T07:02:35.156Z,19.59
2018-05-26T07:03:43.222Z,19.62
2018-05-26T07:04:51.294Z,19.71
2018-05-26T07:05:59.347Z,19.72
2018-05-26T07:07:07.433Z,19.93
2018-05-26T07:08:15.514Z,20.03
2018-05-26T07:09:23.592Z,20.19
2018-05-26T07:10:31.658Z,20.33
2018-05-26T07:11:39.727Z,20.48
2018-05-26T07:12:47.873Z,20.50
2018-05-26T07:13:55.847Z,20.74
2018-05-26T07:15:03.919Z,20.89
2018-05-26T07:16:12.000Z,20.98
2018-05-26T07:17:20.056Z,21.05
2018-05-26T07:18:28.139Z,21.19
2018-05-26T07:19:36.220Z,21.40
2018-05-26T07:20:44.390Z,21.68
2018-05-26T07:21:52.366Z,22.06
2018-05-26T07:23:00.450Z,22.59
2018-05-26T07:24:08.509Z,22.89
2018-05-26T07:25:16.577Z,22.88
2018-05-26T07:26:24.682Z,22.76
2018-05-26T07:27:32.712Z,22.78
2018-05-26T07:28:40.772Z,22.95
2018-05-26T07:29:48.868Z,23.18
2018-05-26T07:30:56.948Z,23.62
2018-05-26T07:32:05.003Z,24.11
2018-05-26T07:33:13.079Z,24.16
2018-05-26T07:34:21.154Z,24.55
2018-05-26T07:35:29.217Z,24.61
2018-05-26T07:36:37.305Z,25.07
2018-05-26T07:37:45.364Z,25.36
2018-05-26T07:38:53.451Z,24.86
2018-05-26T07:40:01.532Z,25.30
2018-05-26T07:41:09.600Z,25.58
2018-05-26T07:42:17.692Z,25.89
2018-05-26T07:43:25.761Z,26.13
2018-05-26T07:44:33.846Z,25.98
2018-05-26T07:45:41.882Z,26.16
2018-05-26T07:46:49.954Z,26.16
2018-05-26T07:47:58.051Z,26.13
2018-05-26T07:49:06.139Z,26.31
2018-05-26T07:50:14.212Z,26.42
2018-05-26T07:51:22.296Z,26.37
2018-05-26T07:52:30.378Z,25.86
2018-05-26T07:53:38.437Z,25.44
2018-05-26T07:54:46.524Z,25.31
2018-05-26T07:55:54.623Z,25.41
2018-05-26T07:57:02.686Z,25.52
2018-05-26T07:58:10.763Z,25.22
2018-05-26T07:59:18.867Z,25.19
2018-05-26T08:00:26.916Z,25.12
2018-05-26T08:01:35.014Z,25.37
2018-05-26T08:02:43.080Z,25.34
2018-05-26T08:03:51.168Z,25.59
2018-05-26T08:04:59.240Z,25.86
2018-05-26T08:06:07.312Z,26.13
2018-05-26T08:07:15.401Z,26.34
2018-05-26T08:08:23.485Z,26.01
2018-05-26T08:09:31.563Z,25.77
2018-05-26T08:10:39.626Z,25.12
2018-05-26T08:11:47.722Z,25.49
2018-05-26T08:12:55.801Z,25.59
2018-05-26T08:14:03.872Z,25.88
2018-05-26T08:15:11.961Z,25.86
2018-05-26T08:16:20.016Z,25.85
2018-05-26T08:17:28.137Z,26.16
2018-05-26T08:18:36.197Z,26.23
2018-05-26T08:19:44.269Z,26.36
2018-05-26T08:20:52.355Z,26.51
2018-05-26T08:22:00.447Z,26.76
2018-05-26T08:23:08.525Z,26.86
2018-05-26T08:24:16.599Z,27.04
2018-05-26T08:25:24.684Z,26.76
2018-05-26T08:26:32.775Z,26.45
2018-05-26T08:27:40.839Z,26.51
2018-05-26T08:28:48.920Z,26.61
2018-05-26T08:29:57.027Z,26.60
2018-05-26T08:31:05.105Z,26.73
2018-05-26T08:32:13.164Z,26.78
2018-05-26T08:33:21.242Z,26.82
2018-05-26T08:34:29.319Z,27.04
2018-05-26T08:35:37.418Z,27.05
2018-05-26T08:36:45.497Z,27.15
2018-05-26T08:37:53.579Z,27.64
2018-05-26T08:39:01.666Z,27.78
2018-05-26T08:40:09.708Z,27.78
2018-05-26T08:41:17.810Z,27.78
2018-05-26T08:42:25.881Z,28.03
2018-05-26T08:43:33.975Z,28.12
2018-05-26T08:44:42.050Z,28.22
2018-05-26T08:45:50.106Z,27.53
2018-05-26T08:46:58.220Z,27.03
2018-05-26T08:48:06.301Z,27.04
2018-05-26T08:49:14.380Z,26.88
2018-05-26T08:50:22.468Z,27.00
2018-05-26T08:51:30.539Z,26.88
2018-05-26T08:52:38.641Z,27.19
2018-05-26T08:53:46.723Z,27.33
2018-05-26T08:54:54.801Z,27.47
2018-05-26T08:56:02.891Z,27.63
2018-05-26T08:57:10.956Z,27.98
2018-05-26T08:58:19.048Z,28.22
2018-05-26T08:59:27.132Z,28.30
2018-05-26T09:00:35.201Z,28.50
2018-05-26T09:01:43.279Z,28.43
2018-05-26T09:02:51.372Z,28.41
2018-05-26T09:03:59.417Z,27.64
2018-05-26T09:05:07.533Z,27.61
2018-05-26T09:06:15.613Z,27.52
2018-05-26T09:07:23.690Z,27.60
2018-05-26T09:08:31.781Z,27.53
2018-05-26T09:09:39.839Z,27.44
2018-05-26T09:10:47.939Z,27.57
2018-05-26T09:11:56.025Z,27.64
2018-05-26T09:13:04.106Z,27.81
2018-05-26T09:14:12.196Z,27.86
2018-05-26T09:15:20.256Z,28.01
2018-05-26T09:16:28.353Z,28.10
2018-05-26T09:17:36.431Z,28.09
2018-05-26T09:18:44.571Z,27.61
2018-05-26T09:19:52.597Z,27.45
2018-05-26T09:21:00.673Z,27.11
2018-05-26T09:22:08.754Z,26.78
2018-05-26T09:23:16.835Z,26.59
2018-05-26T09:24:24.953Z,26.48
2018-05-26T09:25:33.039Z,26.45
2018-05-26T09:26:41.078Z,26.60
2018-05-26T09:27:49.159Z,26.42
2018-05-26T09:28:57.224Z,26.42
2018-05-26T09:30:05.309Z,26.42
2018-05-26T09:31:13.408Z,26.49
2018-05-26T09:32:21.475Z,26.42
2018-05-26T09:33:29.566Z,26.36
2018-05-26T09:34:37.638Z,26.36
2018-05-26T09:35:45.713Z,26.45
2018-05-26T09:36:53.912Z,26.49
2018-05-26T09:38:01.883Z,26.51
2018-05-26T09:39:10.530Z,26.33
2018-05-26T09:40:18.390Z,25.89
2018-05-26T09:41:26.731Z,25.74
2018-05-26T09:42:34.789Z,25.31
2018-05-26T09:43:42.891Z,25.07
2018-05-26T09:44:51.023Z,25.09
2018-05-26T09:45:58.426Z,25.19
2018-05-26T09:47:06.493Z,25.37
2018-05-26T09:48:14.584Z,25.56
2018-05-26T09:49:22.648Z,25.58
2018-05-26T09:50:30.745Z,25.73
2018-05-26T09:51:38.811Z,25.58
2018-05-26T09:52:46.895Z,25.55
2018-05-26T09:53:54.932Z,25.59
2018-05-26T09:55:03.033Z,25.62
2018-05-26T09:56:11.120Z,25.56
2018-05-26T09:57:19.184Z,25.63
2018-05-26T09:58:27.271Z,25.62
2018-05-26T09:59:35.339Z,25.66
2018-05-26T10:00:43.416Z,25.70
2018-05-26T10:01:51.491Z,25.78
2018-05-26T10:02:59.554Z,25.80
2018-05-26T10:04:07.642Z,25.85
2018-05-26T10:05:15.731Z,25.96
2018-05-26T10:06:23.805Z,25.85
2018-05-26T10:07:31.859Z,25.73
2018-05-26T10:08:39.913Z,25.70
2018-05-26T10:09:48.015Z,25.88
2018-05-26T10:10:56.083Z,25.86
2018-05-26T10:12:04.173Z,25.93
2018-05-26T10:13:12.240Z,26.03
2018-05-26T10:14:20.321Z,26.13
2018-05-26T10:15:28.403Z,26.29
2018-05-26T10:16:36.475Z,26.30
2018-05-26T10:17:44.547Z,26.31
2018-05-26T10:18:52.610Z,26.39
2018-05-26T10:20:00.757Z,26.52
2018-05-26T10:21:08.768Z,26.44
2018-05-26T10:22:16.846Z,26.39
2018-05-26T10:23:24.915Z,26.46
2018-05-26T10:24:32.991Z,26.55
2018-05-26T10:25:41.053Z,26.60
2018-05-26T10:26:49.136Z,26.67
2018-05-26T10:27:57.205Z,26.74
2018-05-26T10:29:05.273Z,26.78
2018-05-26T10:30:13.372Z,26.78
2018-05-26T10:31:21.458Z,26.78
2018-05-26T10:32:29.536Z,26.27
2018-05-26T10:33:37.592Z,26.23
2018-05-26T10:34:45.665Z,26.18
2018-05-26T10:35:53.737Z,26.16
2018-05-26T10:37:01.832Z,26.11
2018-05-26T10:38:09.904Z,26.18
2018-05-26T10:39:17.963Z,26.26
2018-05-26T10:40:26.060Z,26.30
2018-05-26T10:41:34.106Z,26.39
2018-05-26T10:42:42.194Z,26.48
2018-05-26T10:43:50.247Z,26.63
2018-05-26T10:44:58.328Z,26.60
2018-05-26T10:46:06.410Z,26.66
2018-05-26T10:47:14.492Z,26.78
2018-05-26T10:48:22.557Z,26.76
2018-05-26T10:49:30.634Z,26.67
2018-05-26T10:50:38.708Z,26.71
2018-05-26T10:51:46.780Z,26.31
2018-05-26T10:52:54.844Z,26.29
2018-05-26T10:54:02.914Z,26.33
2018-05-26T10:55:11.011Z,26.44
2018-05-26T10:56:19.069Z,26.29
2018-05-26T10:57:27.153Z,26.26
2018-05-26T10:58:35.235Z,26.36
2018-05-26T10:59:43.304Z,26.34
2018-05-26T11:00:51.381Z,26.53
2018-05-26T11:02:03.741Z,26.52
2018-05-26T11:03:07.526Z,26.63
2018-05-26T11:04:15.680Z,26.59
2018-05-26T11:05:23.684Z,26.53
2018-05-26T11:06:31.741Z,26.51
2018-05-26T11:07:39.826Z,26.61
2018-05-26T11:08:47.917Z,26.67
2018-05-26T11:09:55.974Z,26.56
2018-05-26T11:11:04.051Z,26.74
2018-05-26T11:12:12.134Z,26.79
2018-05-26T11:13:20.193Z,26.86
2018-05-26T11:14:28.285Z,26.93
2018-05-26T11:15:36.373Z,27.01
2018-05-26T11:16:44.425Z,27.05
2018-05-26T11:17:52.495Z,27.01
2018-05-26T11:19:00.615Z,27.08
2018-05-26T11:20:08.654Z,27.11
2018-05-26T11:21:16.724Z,26.92
2018-05-26T11:22:24.804Z,26.88
2018-05-26T11:23:32.865Z,26.91
2018-05-26T11:24:40.977Z,26.98
2018-05-26T11:25:49.027Z,27.03
2018-05-26T11:26:57.085Z,27.05
2018-05-26T11:28:05.161Z,27.04
2018-05-26T11:29:13.227Z,27.07
2018-05-26T11:30:21.312Z,27.20
2018-05-26T11:31:29.396Z,27.03
2018-05-26T11:32:37.456Z,26.82
2018-05-26T11:33:45.547Z,26.91
2018-05-26T11:34:53.617Z,26.88
2018-05-26T11:36:01.699Z,26.83
2018-05-26T11:37:09.737Z,26.98
2018-05-26T11:38:17.838Z,27.04
2018-05-26T11:39:25.929Z,27.03
2018-05-26T11:40:33.987Z,27.05
2018-05-26T11:41:42.060Z,27.15
2018-05-26T11:42:50.164Z,27.22
2018-05-26T11:43:58.218Z,27.33
2018-05-26T11:45:06.298Z,27.37
2018-05-26T11:46:14.439Z,27.03
2018-05-26T11:47:22.443Z,26.96
2018-05-26T11:48:30.517Z,26.88
2018-05-26T11:49:38.572Z,26.88
2018-05-26T11:50:46.664Z,26.79
2018-05-26T11:51:54.735Z,26.86
2018-05-26T11:53:02.843Z,26.86
2018-05-26T11:54:10.893Z,26.82
2018-05-26T11:55:18.973Z,26.83
2018-05-26T11:56:27.032Z,26.97
2018-05-26T11:57:35.112Z,26.89
2018-05-26T11:58:43.174Z,26.74
2018-05-26T11:59:51.258Z,26.78
2018-05-26T12:00:59.308Z,26.79
2018-05-26T12:02:07.468Z,26.73
2018-05-26T12:03:15.469Z,26.81
2018-05-26T12:04:23.553Z,27.01
2018-05-26T12:05:31.614Z,26.96
2018-05-26T12:06:39.683Z,26.93
2018-05-26T12:07:47.780Z,26.88
2018-05-26T12:08:55.840Z,26.97
2018-05-26T12:10:03.913Z,26.93
2018-05-26T12:11:12.061Z,27.08
2018-05-26T12:12:20.054Z,27.00
2018-05-26T12:13:28.162Z,27.03
2018-05-26T12:14:36.206Z,27.15
2018-05-26T12:15:44.277Z,27.18
2018-05-26T12:16:52.375Z,27.29
2018-05-26T12:18:00.459Z,27.34
2018-05-26T12:19:08.525Z,27.43
2018-05-26T12:20:16.596Z,27.45
2018-05-26T12:21:24.678Z,27.55
2018-05-26T12:22:32.748Z,27.55
2018-05-26T12:23:40.822Z,27.66
2018-05-26T12:24:48.927Z,27.71
2018-05-26T12:25:56.965Z,27.79
2018-05-26T12:27:05.051Z,27.81
2018-05-26T12:28:13.112Z,27.88
2018-05-26T12:29:21.221Z,28.00
2018-05-26T12:30:29.269Z,27.98
2018-05-26T12:31:37.348Z,28.08
2018-05-26T12:32:45.424Z,28.00
2018-05-26T12:33:53.495Z,28.12
2018-05-26T12:35:01.562Z,28.03
2018-05-26T12:36:09.609Z,28.00
2018-05-26T12:37:17.726Z,27.79
2018-05-26T12:38:25.817Z,27.67
2018-05-26T12:39:33.883Z,27.64
2018-05-26T12:40:41.976Z,27.47
2018-05-26T12:41:49.989Z,27.55
2018-05-26T12:42:58.124Z,27.55
2018-05-26T12:44:06.165Z,27.58
2018-05-26T12:45:14.264Z,27.53
2018-05-26T12:46:22.319Z,27.64
2018-05-26T12:47:30.391Z,27.58
2018-05-26T12:48:38.456Z,27.61
2018-05-26T12:49:46.540Z,27.50
2018-05-26T12:50:54.628Z,27.41
2018-05-26T12:52:02.704Z,27.48
2018-05-26T12:53:11.171Z,27.55
2018-05-26T12:54:18.848Z,27.68
2018-05-26T12:55:26.910Z,27.83
2018-05-26T12:56:34.987Z,27.85
2018-05-26T12:57:43.066Z,28.01
2018-05-26T12:58:51.256Z,27.97
2018-05-26T12:59:59.210Z,28.01
2018-05-26T13:01:07.285Z,28.00
2018-05-26T13:02:15.368Z,27.95
2018-05-26T13:03:23.448Z,28.00
2018-05-26T13:04:31.526Z,27.94
2018-05-26T13:05:39.569Z,27.75
2018-05-26T13:06:47.656Z,27.50
2018-05-26T13:07:55.741Z,27.35
2018-05-26T13:09:03.827Z,27.28
2018-05-26T13:10:11.900Z,27.15
2018-05-26T13:11:19.971Z,27.01
2018-05-26T13:12:28.030Z,26.89
2018-05-26T13:13:36.118Z,26.78
2018-05-26T13:14:44.186Z,26.79
2018-05-26T13:15:52.270Z,26.59
2018-05-26T13:17:00.332Z,26.49
2018-05-26T13:18:08.406Z,26.37
2018-05-26T13:19:16.488Z,26.34
2018-05-26T13:20:24.565Z,26.15
2018-05-26T13:21:32.639Z,26.13
2018-05-26T13:22:40.714Z,26.11
2018-05-26T13:23:48.787Z,26.07
2018-05-26T13:24:56.858Z,26.03
2018-05-26T13:26:04.929Z,26.08
2018-05-26T13:27:13.002Z,26.16
2018-05-26T13:28:21.084Z,26.13
2018-05-26T13:29:29.153Z,26.15
2018-05-26T13:30:37.236Z,26.19
2018-05-26T13:31:45.314Z,26.13
2018-05-26T13:32:53.374Z,26.13
2018-05-26T13:34:01.467Z,26.18
2018-05-26T13:35:09.534Z,26.08
2018-05-26T13:36:17.602Z,26.11
2018-05-26T13:37:25.668Z,26.10
2018-05-26T13:38:33.764Z,26.08
2018-05-26T13:39:41.832Z,25.96
2018-05-26T13:40:49.869Z,25.80
2018-05-26T13:41:57.965Z,25.80
2018-05-26T13:43:06.048Z,25.78
2018-05-26T13:44:14.155Z,25.59
2018-05-26T13:45:22.192Z,25.48
2018-05-26T13:46:30.258Z,25.62
2018-05-26T13:47:38.338Z,25.55
2018-05-26T13:48:46.459Z,25.43
2018-05-26T13:49:54.489Z,25.31
2018-05-26T13:51:02.622Z,25.29
2018-05-26T13:52:10.768Z,25.18
2018-05-26T13:53:18.791Z,25.07
2018-05-26T13:54:26.890Z,25.07
2018-05-26T13:55:34.874Z,24.94
2018-05-26T13:56:42.951Z,24.93
2018-05-26T13:57:51.018Z,24.79
2018-05-26T13:58:59.086Z,24.75
2018-05-26T14:00:07.168Z,24.74
2018-05-26T14:01:15.238Z,24.58
2018-05-26T14:02:23.303Z,24.63
2018-05-26T14:03:31.385Z,24.53
2018-05-26T14:04:39.443Z,24.46
2018-05-26T14:05:47.519Z,24.46
2018-05-26T14:06:55.599Z,24.38
2018-05-26T14:08:03.675Z,24.38
2018-05-26T14:09:11.753Z,24.26
2018-05-26T14:10:19.797Z,24.36
2018-05-26T14:11:27.900Z,24.40
2018-05-26T14:12:35.982Z,24.44
2018-05-26T14:13:44.039Z,24.40
2018-05-26T14:14:52.134Z,24.47
2018-05-26T14:16:00.169Z,24.50
2018-05-26T14:17:08.287Z,24.46
2018-05-26T14:18:16.349Z,24.47
2018-05-26T14:19:24.405Z,24.32
2018-05-26T14:20:32.487Z,24.37
2018-05-26T14:21:40.564Z,24.51
2018-05-26T14:22:48.626Z,24.55
2018-05-26T14:23:56.728Z,24.59
2018-05-26T14:25:04.779Z,24.62
2018-05-26T14:26:12.858Z,24.69
2018-05-26T14:27:20.930Z,24.75
2018-05-26T14:28:29.006Z,24.71
2018-05-26T14:29:37.076Z,24.85
2018-05-26T14:30:45.149Z,24.92
2018-05-26T14:31:53.221Z,24.89
2018-05-26T14:33:01.300Z,24.94
2018-05-26T14:34:09.351Z,24.97
2018-05-26T14:35:17.458Z,25.00
2018-05-26T14:36:25.552Z,25.00